Time;durP1;ratioP1;P1;durP2;ratioP2;P2;SDS_P1;SDS_P2;PMS_P1;PMS_P2;Temp;Humidity;BMP_temperature;BMP_pressure;BME280_temperature;BME280_humidity;BME280_pressure;Samples;Min_cycle;Max_cycle;Signal;HPM_P1;HPM_P2
2023/01/30 00:01:51;;;;;;;;;;;;;;;19.90;41.77;100840.34;5055540;28;3030;-74
2023/01/30 00:04:18;;;;;;;;;;;;;;;19.90;41.79;100828.09;5048480;28;2750;-74
2023/01/30 00:06:44;;;;;;;;;;;;;;;19.91;41.81;100820.97;5057089;28;3059;-75
2023/01/30 00:09:14;;;;;;;;;;;;;;;19.89;41.80;100818.75;5052771;28;3114;-73
2023/01/30 00:11:41;;;;;;;;;;;;;;;19.89;41.68;100795.75;5051345;28;2874;-73
2023/01/30 00:14:07;;;;;;;;;;;;;;;19.89;41.74;100781.38;5056000;28;2980;-74
2023/01/30 00:16:34;;;;;;;;;;;;;;;19.88;41.71;100783.53;5054785;28;2910;-75
2023/01/30 00:19:00;;;;;;;;;;;;;;;19.89;41.83;100772.75;5052818;28;2761;-74
2023/01/30 00:21:27;;;;;;;;;;;;;;;19.88;41.78;100771.25;5054311;28;3122;-74
2023/01/30 00:23:53;;;;;;;;;;;;;;;19.88;41.79;100772.03;5054144;28;2883;-73
2023/01/30 00:26:19;;;;;;;;;;;;;;;19.87;41.77;100761.16;5049480;28;3012;-74
2023/01/30 00:28:46;;;;;;;;;;;;;;;19.89;41.80;100749.78;5054212;28;2982;-73
2023/01/30 00:31:12;;;;;;;;;;;;;;;19.89;41.74;100738.28;5049601;28;3228;-74
2023/01/30 00:33:39;;;;;;;;;;;;;;;19.90;41.77;100725.38;5051576;28;2874;-73
2023/01/30 00:36:05;;;;;;;;;;;;;;;19.90;41.83;100705.25;5053781;28;2939;-74
2023/01/30 00:38:31;;;;;;;;;;;;;;;19.89;41.83;100698.03;5054318;28;3004;-74
2023/01/30 00:40:58;;;;;;;;;;;;;;;19.90;41.78;100678.66;5051097;28;2553;-74
2023/01/30 00:49:00;;;;;;;;;;;;;;;19.89;41.67;100646.31;5050417;28;2866;-75
2023/01/30 00:51:26;;;;;;;;;;;;;;;19.89;41.70;100652.06;5068856;28;3703;-75
2023/01/30 00:53:52;;;;;;;;;;;;;;;19.88;41.74;100639.84;5048362;28;2813;-75
2023/01/30 00:56:19;;;;;;;;;;;;;;;19.88;41.77;100633.31;5044485;28;2991;-74
2023/01/30 00:58:45;;;;;;;;;;;;;;;19.88;41.67;100633.31;5054095;28;3149;-78
2023/01/30 01:01:11;;;;;;;;;;;;;;;19.90;41.79;100633.41;5050908;28;2852;-77
2023/01/30 01:03:38;;;;;;;;;;;;;;;19.91;41.64;100637.78;5058854;28;2902;-78
2023/01/30 01:06:04;;;;;;;;;;;;;;;19.93;41.79;100625.63;5056188;28;3130;-78
2023/01/30 01:08:30;;;;;;;;;;;;;;;19.94;41.76;100622.13;5057288;28;2918;-73
2023/01/30 01:10:57;;;;;;;;;;;;;;;19.93;41.82;100614.91;5058124;28;2962;-74
2023/01/30 01:13:24;;;;;;;;;;;;;;;19.93;41.85;100612.03;5049450;28;3535;-74
2023/01/30 01:15:50;;;;;;;;;;;;;;;19.93;41.87;100573.91;5049086;28;2601;-74
2023/01/30 01:18:16;;;;;;;;;;;;;;;19.91;41.97;100568.81;5055066;28;2902;-74
2023/01/30 01:20:44;;;;;;;;;;;;;;;19.91;41.88;100580.31;5061364;28;2749;-74
2023/01/30 01:23:10;;;;;;;;;;;;;;;19.90;41.77;100572.34;5052383;28;3035;-74
2023/01/30 01:25:37;;;;;;;;;;;;;;;19.89;41.88;100574.47;5051646;28;3049;-73
2023/01/30 01:28:05;;;;;;;;;;;;;;;19.88;41.89;100547.13;5050836;28;3291;-73
2023/01/30 01:30:31;;;;;;;;;;;;;;;19.89;41.79;100565.88;5043406;28;3063;-74
2023/01/30 01:32:57;;;;;;;;;;;;;;;19.88;41.79;100570.13;5053847;28;2878;-74
2023/01/30 01:35:23;;;;;;;;;;;;;;;19.88;41.87;100558.63;5066779;28;2777;-73
2023/01/30 01:37:53;;;;;;;;;;;;;;;19.88;41.90;100570.13;5057827;28;3056;-74
2023/01/30 01:43:18;;;;;;;;;;;;;;;19.89;41.91;100577.34;5045743;28;2755;-73
2023/01/30 01:45:44;;;;;;;;;;;;;;;19.90;41.90;100592.47;5050971;28;3086;-73
2023/01/30 01:48:17;;;;;;;;;;;;;;;19.90;41.88;100578.09;5051395;28;2838;-74
2023/01/30 01:50:48;;;;;;;;;;;;;;;19.89;41.95;100583.09;5056573;28;2757;-73
2023/01/30 01:53:15;;;;;;;;;;;;;;;19.89;41.88;100560.13;5036392;28;2957;-73
2023/01/30 01:55:42;;;;;;;;;;;;;;;19.90;41.86;100550.09;5053129;28;3072;-72
2023/01/30 01:58:13;;;;;;;;;;;;;;;19.89;41.88;100540.00;5058487;28;2780;-73
2023/01/30 02:00:39;;;;;;;;;;;;;;;19.88;41.88;100529.88;5039750;28;2959;-73
2023/01/30 02:03:06;;;;;;;;;;;;;;;19.87;41.94;100522.66;5051201;28;2732;-73
2023/01/30 02:05:33;;;;;;;;;;;;;;;19.87;42.05;100508.31;5036662;28;3088;-73
2023/01/30 02:08:13;;;;;;;;;;;;;;;19.88;41.91;100495.41;5051780;28;2913;-73
2023/01/30 02:10:43;;;;;;;;;;;;;;;19.87;41.76;100491.78;5031031;28;2834;-73
2023/01/30 02:13:10;;;;;;;;;;;;;;;19.86;41.85;100490.31;5041637;28;2911;-73
2023/01/30 02:15:36;;;;;;;;;;;;;;;19.85;41.85;100480.22;5053122;28;2839;-74
2023/01/30 02:18:03;;;;;;;;;;;;;;;19.85;41.85;100462.97;5052773;28;2940;-74
2023/01/30 02:20:39;;;;;;;;;;;;;;;19.87;41.87;100460.19;5047668;28;2793;-73
2023/01/30 02:23:26;;;;;;;;;;;;;;;19.87;41.79;100447.97;5045715;28;2959;-74
2023/01/30 02:26:15;;;;;;;;;;;;;;;19.87;41.81;100434.31;5047125;28;3232;-74
2023/01/30 02:28:51;;;;;;;;;;;;;;;19.88;41.77;100437.94;5028999;28;3073;-74
2023/01/30 02:31:20;;;;;;;;;;;;;;;19.87;41.85;100431.44;5047274;28;2980;-74
2023/01/30 02:33:53;;;;;;;;;;;;;;;19.88;41.78;100426.44;5026628;28;2977;-75
2023/01/30 02:36:28;;;;;;;;;;;;;;;19.87;41.63;100424.97;5047647;28;2855;-74
2023/01/30 02:38:59;;;;;;;;;;;;;;;19.86;41.77;100409.13;5049579;28;2679;-74
2023/01/30 02:41:27;;;;;;;;;;;;;;;19.85;41.79;100405.50;5047712;28;2888;-74
2023/01/30 02:43:58;;;;;;;;;;;;;;;19.84;41.60;100398.28;5058103;28;2760;-74
2023/01/30 02:46:34;;;;;;;;;;;;;;;19.84;41.81;100398.28;5051423;28;2901;-74
2023/01/30 02:49:03;;;;;;;;;;;;;;;19.83;41.73;100388.19;5048389;28;2849;-73
2023/01/30 02:51:30;;;;;;;;;;;;;;;19.84;41.76;100383.19;5051798;28;2476;-74
2023/01/30 02:53:57;;;;;;;;;;;;;;;19.85;41.68;100376.03;5057953;28;2486;-74
2023/01/30 02:56:24;;;;;;;;;;;;;;;19.85;41.78;100376.03;5050740;28;2547;-73
2023/01/30 02:58:55;;;;;;;;;;;;;;;19.85;41.71;100365.28;5053821;28;2881;-73
2023/01/30 03:01:37;;;;;;;;;;;;;;;19.87;41.78;100367.50;5044994;28;2950;-72
2023/01/30 03:04:17;;;;;;;;;;;;;;;19.86;41.80;100354.56;5047959;28;2937;-73
2023/01/30 03:07:04;;;;;;;;;;;;;;;19.87;41.81;100338.78;5047355;28;2876;-74
2023/01/30 03:09:49;;;;;;;;;;;;;;;19.86;41.86;100343.78;5059940;28;2595;-74
2023/01/30 03:12:17;;;;;;;;;;;;;;;19.87;41.80;100351.00;5040957;28;2875;-74
2023/01/30 03:14:46;;;;;;;;;;;;;;;19.86;41.75;100323.69;5056171;28;2753;-74
2023/01/30 03:17:12;;;;;;;;;;;;;;;19.85;41.80;100336.56;5063095;28;3251;-74
2023/01/30 03:19:39;;;;;;;;;;;;;;;19.86;41.67;100323.69;5047695;28;2993;-74
2023/01/30 03:22:05;;;;;;;;;;;;;;;19.85;41.69;100330.81;5052772;28;2311;-74
2023/01/30 03:24:31;;;;;;;;;;;;;;;19.86;41.78;100331.56;5028896;28;2659;-74
2023/01/30 03:26:59;;;;;;;;;;;;;;;19.85;41.87;100330.06;5048500;28;2938;-74
2023/01/30 03:29:26;;;;;;;;;;;;;;;19.85;41.75;100321.44;5028225;28;2902;-73
2023/01/30 03:31:53;;;;;;;;;;;;;;;19.85;41.77;100304.22;5050334;28;2960;-74
2023/01/30 03:34:19;;;;;;;;;;;;;;;19.85;41.83;100312.84;5061200;28;2910;-74
2023/01/30 03:36:46;;;;;;;;;;;;;;;19.86;41.82;100302.84;5062602;28;2862;-73
2023/01/30 03:39:13;;;;;;;;;;;;;;;19.86;41.81;100308.59;5051501;28;2977;-73
2023/01/30 03:41:40;;;;;;;;;;;;;;;19.86;41.72;100297.09;5055503;28;2835;-73
2023/01/30 03:44:06;;;;;;;;;;;;;;;19.86;41.80;100294.22;5041191;28;2831;-73
2023/01/30 03:46:33;;;;;;;;;;;;;;;19.86;41.80;100280.56;5055001;28;2781;-73
2023/01/30 03:48:59;;;;;;;;;;;;;;;19.87;41.92;100279.16;5054499;28;2722;-73
2023/01/30 03:51:25;;;;;;;;;;;;;;;19.87;41.86;100269.81;5051827;28;2987;-73
2023/01/30 03:53:52;;;;;;;;;;;;;;;19.88;41.87;100254.03;5063859;28;2938;-73
2023/01/30 03:56:18;;;;;;;;;;;;;;;19.90;41.95;100268.50;5053748;28;2888;-73
2023/01/30 03:58:45;;;;;;;;;;;;;;;19.90;42.07;100254.13;5052677;28;3130;-73
2023/01/30 04:01:18;;;;;;;;;;;;;;;19.90;42.01;100242.63;5063909;28;2959;-73
2023/01/30 04:03:45;;;;;;;;;;;;;;;19.92;42.05;100231.22;5057253;28;2903;-73
2023/01/30 04:06:12;;;;;;;;;;;;;;;19.93;42.00;100220.47;5062325;28;3077;-74
2023/01/30 04:08:38;;;;;;;;;;;;;;;19.93;42.09;100226.97;5062946;28;3035;-73
2023/01/30 04:11:06;;;;;;;;;;;;;;;19.93;42.11;100220.47;5069423;28;2850;-74
2023/01/30 04:13:32;;;;;;;;;;;;;;;19.93;42.12;100223.31;5056600;28;2907;-72
2023/01/30 04:16:18;;;;;;;;;;;;;;;19.93;42.26;100221.22;5063684;28;2831;-73
2023/01/30 04:19:03;;;;;;;;;;;;;;;19.92;42.15;100216.84;5057168;28;2524;-73
2023/01/30 04:21:31;;;;;;;;;;;;;;;19.92;42.25;100213.97;5071007;28;2970;-73
2023/01/30 04:23:57;;;;;;;;;;;;;;;19.93;42.27;100209.72;5066963;28;3069;-73
2023/01/30 04:26:24;;;;;;;;;;;;;;;19.92;42.18;100211.09;5052026;28;2742;-72
2023/01/30 04:28:50;;;;;;;;;;;;;;;19.94;42.24;100198.97;5071911;28;3008;-72
2023/01/30 04:31:17;;;;;;;;;;;;;;;19.93;42.35;100209.72;5055318;28;2938;-72
2023/01/30 04:34:02;;;;;;;;;;;;;;;19.93;42.30;100201.09;5049314;28;3185;-72
2023/01/30 04:36:29;;;;;;;;;;;;;;;19.92;42.43;100202.47;5070507;28;2831;-73
2023/01/30 04:38:57;;;;;;;;;;;;;;;19.93;42.36;100203.97;5050727;28;3005;-73
2023/01/30 04:41:24;;;;;;;;;;;;;;;19.92;42.41;100202.47;5053637;28;2991;-73
2023/01/30 04:43:54;;;;;;;;;;;;;;;19.91;42.36;100185.94;5056730;28;2976;-73
2023/01/30 04:46:31;;;;;;;;;;;;;;;19.90;42.40;100193.78;5056617;28;2996;-73
2023/01/30 04:48:58;;;;;;;;;;;;;;;19.92;42.37;100179.50;5055661;28;2730;-73
2023/01/30 04:51:24;;;;;;;;;;;;;;;19.93;42.42;100186.72;5067927;28;3021;-73
2023/01/30 04:53:51;;;;;;;;;;;;;;;19.93;42.34;100175.25;5053021;28;2952;-72
2023/01/30 04:56:17;;;;;;;;;;;;;;;19.93;42.40;100183.84;5054358;28;2835;-73
2023/01/30 04:58:46;;;;;;;;;;;;;;;19.95;42.45;100175.31;5060315;28;2978;-73
2023/01/30 05:01:13;;;;;;;;;;;;;;;19.94;42.47;100176.69;5043842;28;3216;-73
2023/01/30 05:03:40;;;;;;;;;;;;;;;19.94;42.49;100170.97;5048801;28;2947;-73
2023/01/30 05:06:06;;;;;;;;;;;;;;;19.94;42.48;100158.72;5048824;28;2865;-72
2023/01/30 05:08:33;;;;;;;;;;;;;;;19.93;42.43;100158.00;5046001;28;2878;-72
2023/01/30 05:10:59;;;;;;;;;;;;;;;19.93;42.48;100154.38;5046486;28;2916;-72
2023/01/30 05:13:25;;;;;;;;;;;;;;;19.93;42.53;100149.38;5056002;28;2747;-72
2023/01/30 05:15:52;;;;;;;;;;;;;;;19.94;42.52;100162.34;5051387;28;2898;-74
2023/01/30 05:18:18;;;;;;;;;;;;;;;19.95;42.51;100154.44;5054030;28;2748;-72
2023/01/30 05:20:44;;;;;;;;;;;;;;;19.95;42.58;100143.72;5050380;28;2923;-72
2023/01/30 05:23:11;;;;;;;;;;;;;;;19.96;42.63;100148.03;5050362;28;3003;-72
2023/01/30 05:25:37;;;;;;;;;;;;;;;19.96;42.56;100139.44;5050878;28;2912;-72
2023/01/30 05:28:03;;;;;;;;;;;;;;;19.98;42.56;100139.50;5043992;28;2951;-72
2023/01/30 05:30:30;;;;;;;;;;;;;;;19.98;42.66;100142.38;5049931;28;2909;-73
2023/01/30 05:32:57;;;;;;;;;;;;;;;20.00;42.46;100127.34;5054261;28;2798;-73
2023/01/30 05:35:23;;;;;;;;;;;;;;;19.99;42.68;100123.72;5051478;28;2812;-73
2023/01/30 05:37:50;;;;;;;;;;;;;;;19.99;42.65;100120.84;5054178;28;3049;-73
2023/01/30 05:40:16;;;;;;;;;;;;;;;20.00;42.60;100113.72;5051219;28;2809;-73
2023/01/30 05:42:42;;;;;;;;;;;;;;;19.98;42.78;100110.75;5054218;28;2783;-73
2023/01/30 05:45:09;;;;;;;;;;;;;;;19.98;42.81;100105.03;5050848;28;2918;-73
2023/01/30 05:47:35;;;;;;;;;;;;;;;19.98;42.75;100107.88;5051163;28;2965;-72
2023/01/30 05:50:01;;;;;;;;;;;;;;;19.98;42.75;100090.66;5057668;28;1581;-72
2023/01/30 05:52:28;;;;;;;;;;;;;;;19.97;42.57;100089.16;5051627;28;2493;-71
2023/01/30 05:54:54;;;;;;;;;;;;;;;19.98;42.60;100081.31;5042684;28;3005;-73
2023/01/30 05:57:20;;;;;;;;;;;;;;;19.96;42.66;100076.22;5048032;28;2859;-71
2023/01/30 05:59:47;;;;;;;;;;;;;;;19.97;42.68;100076.94;5048069;28;2796;-74
2023/01/30 06:02:13;;;;;;;;;;;;;;;19.97;42.74;100063.31;5052673;28;3176;-74
2023/01/30 06:04:43;;;;;;;;;;;;;;;19.96;42.67;100075.47;5049019;28;3025;-73
2023/01/30 06:07:09;;;;;;;;;;;;;;;19.95;42.72;100069.00;5049483;28;3267;-69
2023/01/30 06:09:35;;;;;;;;;;;;;;;20.07;42.73;100063.66;5049030;28;3204;-68
2023/01/30 06:12:02;;;;;;;;;;;;;;;20.07;42.81;100069.41;5046294;28;2976;-68
2023/01/30 06:14:28;;;;;;;;;;;;;;;20.06;42.94;100073.69;5045305;28;3144;-72
2023/01/30 06:16:54;;;;;;;;;;;;;;;20.16;42.98;100061.81;5038075;28;3511;-74
2023/01/30 06:19:22;;;;;;;;;;;;;;;20.14;42.66;100050.25;5042044;28;3289;-75
2023/01/30 06:21:48;;;;;;;;;;;;;;;20.11;43.08;100051.56;5048089;28;4445;-76
2023/01/30 06:24:14;;;;;;;;;;;;;;;20.04;42.93;100059.25;5047316;28;2883;-75
2023/01/30 06:26:41;;;;;;;;;;;;;;;20.02;42.69;100062.06;5050317;28;4267;-76
2023/01/30 06:29:07;;;;;;;;;;;;;;;20.02;42.73;100059.19;5051674;28;4202;-75
2023/01/30 06:31:33;;;;;;;;;;;;;;;20.01;42.74;100054.09;5047387;28;3080;-75
2023/01/30 06:34:00;;;;;;;;;;;;;;;20.01;42.77;100069.19;5049455;28;3011;-75
2023/01/30 06:36:26;;;;;;;;;;;;;;;20.00;42.76;100076.34;5055290;28;1836;-75
2023/01/30 06:38:53;;;;;;;;;;;;;;;20.02;42.85;100078.53;5051266;28;3048;-76
2023/01/30 06:41:19;;;;;;;;;;;;;;;20.01;42.77;100071.34;5051628;28;2864;-74
2023/01/30 06:43:45;;;;;;;;;;;;;;;20.02;42.83;100084.28;5053913;28;2956;-74
2023/01/30 06:46:12;;;;;;;;;;;;;;;20.03;42.88;100080.03;5047473;28;3085;-75
2023/01/30 06:48:38;;;;;;;;;;;;;;;19.99;43.06;100074.88;5050532;28;2974;-78
2023/01/30 06:51:04;;;;;;;;;;;;;;;20.18;44.56;100067.63;5045609;28;4659;-87
2023/01/30 06:53:31;;;;;;;;;;;;;;;20.45;46.07;100072.13;5056435;28;3524;-72
2023/01/30 06:55:57;;;;;;;;;;;;;;;20.62;44.96;100049.69;5053433;28;4580;-72
2023/01/30 06:58:24;;;;;;;;;;;;;;;20.70;44.83;100049.94;5048303;28;4650;-73
2023/01/30 07:00:50;;;;;;;;;;;;;;;20.79;44.15;100063.19;5056682;28;3029;-74
2023/01/30 07:03:16;;;;;;;;;;;;;;;20.84;43.72;100053.28;5049898;28;3068;-73
2023/01/30 07:05:43;;;;;;;;;;;;;;;20.93;43.40;100060.75;5051554;28;3267;-74
2023/01/30 07:08:09;;;;;;;;;;;;;;;20.99;43.53;100045.09;5048261;28;3093;-72
2023/01/30 07:10:36;;;;;;;;;;;;;;;21.09;43.17;100051.16;5053575;28;3473;-72
2023/01/30 07:13:02;;;;;;;;;;;;;;;21.09;42.44;100056.91;5048354;28;2970;-73
2023/01/30 07:15:28;;;;;;;;;;;;;;;21.02;41.41;100043.75;5048322;28;3529;-73
2023/01/30 07:17:55;;;;;;;;;;;;;;;21.12;41.91;100041.19;5047399;28;3015;-72
2023/01/30 07:20:21;;;;;;;;;;;;;;;20.99;41.70;100036.47;5051813;28;3002;-76
2023/01/30 07:22:51;;;;;;;;;;;;;;;20.91;42.16;100029.06;5049222;28;3108;-76
2023/01/30 07:25:18;;;;;;;;;;;;;;;20.95;41.85;100027.69;5049677;28;3048;-78
2023/01/30 07:27:51;;;;;;;;;;;;;;;21.03;42.04;100027.97;5059640;28;3103;-77
2023/01/30 07:30:17;;;;;;;;;;;;;;;20.95;41.90;100021.94;5060783;28;3388;-74
2023/01/30 07:32:43;;;;;;;;;;;;;;;20.85;42.39;100031.75;5045119;28;3010;-75
2023/01/30 07:35:10;;;;;;;;;;;;;;;20.54;41.96;100032.88;5052510;28;2962;-72
2023/01/30 07:37:36;;;;;;;;;;;;;;;20.57;41.95;100034.44;5058228;28;3186;-80
2023/01/30 07:40:03;;;;;;;;;;;;;;;20.31;45.12;100037.16;5060366;28;3037;-74
2023/01/30 07:42:29;;;;;;;;;;;;;;;20.21;45.58;100031.06;5060283;28;3455;-74
2023/01/30 07:44:56;;;;;;;;;;;;;;;20.13;45.25;100040.13;5058737;28;2957;-77
2023/01/30 07:47:22;;;;;;;;;;;;;;;19.99;44.72;100040.38;5061137;28;2966;-75
2023/01/30 07:49:49;;;;;;;;;;;;;;;19.96;44.28;100041.72;5057528;28;2966;-73
2023/01/30 07:52:15;;;;;;;;;;;;;;;20.12;43.59;100037.94;5061157;28;3103;-81
2023/01/30 07:54:41;;;;;;;;;;;;;;;20.16;43.35;100047.44;5061846;28;2879;-75
2023/01/30 07:57:08;;;;;;;;;;;;;;;20.05;43.20;100054.97;5056340;28;2922;-69
2023/01/30 07:59:34;;;;;;;;;;;;;;;19.95;43.10;100053.88;5056251;28;2965;-80
2023/01/30 08:02:00;;;;;;;;;;;;;;;19.92;42.87;100043.72;5052080;28;3090;-81
2023/01/30 08:04:27;;;;;;;;;;;;;;;19.95;43.11;100040.28;5046566;28;2977;-73
2023/01/30 08:06:53;;;;;;;;;;;;;;;19.96;44.36;100041.72;5047800;28;3025;-75
2023/01/30 08:09:19;;;;;;;;;;;;;;;19.98;44.39;100038.94;5049857;28;3221;-76
2023/01/30 08:11:46;;;;;;;;;;;;;;;19.99;43.55;100040.38;5056324;28;3095;-75
2023/01/30 08:14:12;;;;;;;;;;;;;;;20.00;42.79;100046.88;5048930;28;2937;-73
2023/01/30 08:16:39;;;;;;;;;;;;;;;20.34;42.44;100052.31;5046293;28;2946;-71
2023/01/30 08:19:05;;;;;;;;;;;;;;;20.60;42.52;100049.63;5048497;28;2855;-75
2023/01/30 08:21:31;;;;;;;;;;;;;;;20.75;42.49;100051.53;5047820;28;3574;-76
2023/01/30 08:23:58;;;;;;;;;;;;;;;20.80;42.66;100041.66;5052778;28;2954;-80
2023/01/30 08:26:26;;;;;;;;;;;;;;;20.58;43.45;100038.78;5056309;28;3001;-67
2023/01/30 08:28:54;;;;;;;;;;;;;;;20.65;47.73;100048.34;5052108;28;3089;-67
2023/01/30 08:31:21;;;;;;;;;;;;;;;20.56;51.90;100040.84;5052807;28;3153;-68
2023/01/30 08:33:47;;;;;;;;;;;;;;;20.46;54.29;100044.84;5053637;28;2517;-65
2023/01/30 08:36:13;;;;;;;;;;;;;;;20.43;57.05;100049.06;5052812;28;3062;-66
2023/01/30 08:38:40;;;;;;;;;;;;;;;20.41;57.33;100042.50;5047927;28;3074;-67
2023/01/30 08:41:07;;;;;;;;;;;;;;;20.42;48.82;100041.09;5052778;28;2919;-67
2023/01/30 08:43:33;;;;;;;;;;;;;;;20.53;49.23;100045.06;5040586;28;4425;-66
2023/01/30 08:46:00;;;;;;;;;;;;;;;20.57;46.82;100050.97;5055649;28;2954;-67
2023/01/30 08:48:26;;;;;;;;;;;;;;;20.56;47.24;100046.59;5048899;28;3049;-66
2023/01/30 08:50:57;;;;;;;;;;;;;;;20.55;47.10;100034.34;5050794;28;3142;-67
2023/01/30 08:53:23;;;;;;;;;;;;;;;20.54;46.62;100032.88;5043942;28;3017;-66
2023/01/30 08:55:50;;;;;;;;;;;;;;;20.53;46.64;100047.94;5053760;28;2954;-67
2023/01/30 08:58:16;;;;;;;;;;;;;;;20.50;46.39;100033.50;5052356;28;3188;-66
2023/01/30 09:00:43;;;;;;;;;;;;;;;20.50;46.48;100036.38;5045570;28;3146;-67
2023/01/30 09:03:11;;;;;;;;;;;;;;;20.48;46.00;100039.16;5045630;28;2950;-67
2023/01/30 09:05:38;;;;;;;;;;;;;;;20.51;45.85;100039.97;5058319;28;3000;-67
2023/01/30 09:08:04;;;;;;;;;;;;;;;20.48;45.63;100044.94;5049247;28;2991;-66
2023/01/30 09:10:31;;;;;;;;;;;;;;;20.50;45.56;100050.75;5041500;28;4029;-66
2023/01/30 09:12:57;;;;;;;;;;;;;;;20.52;45.59;100052.94;5050515;28;2986;-73
2023/01/30 09:15:23;;;;;;;;;;;;;;;20.81;45.46;100054.63;5051952;28;4642;-71
2023/01/30 09:17:53;;;;;;;;;;;;;;;21.00;45.15;100052.31;5056445;28;2938;-70
2023/01/30 09:20:19;;;;;;;;;;;;;;;21.01;44.97;100059.56;5050060;28;3982;-68
2023/01/30 09:22:46;;;;;;;;;;;;;;;21.04;45.21;100052.44;5044837;28;4689;-72
2023/01/30 09:25:12;;;;;;;;;;;;;;;21.13;44.97;100060.66;5054215;28;2951;-72
2023/01/30 09:27:40;;;;;;;;;;;;;;;21.19;44.77;100057.22;5051436;28;2990;-74
2023/01/30 09:30:07;;;;;;;;;;;;;;;21.19;44.67;100054.34;5050130;28;2950;-74
2023/01/30 09:32:36;;;;;;;;;;;;;;;21.16;44.72;100063.59;5051481;28;2943;-74
2023/01/30 09:35:03;;;;;;;;;;;;;;;21.18;44.78;100052.88;5060657;28;2654;-74
2023/01/30 09:37:29;;;;;;;;;;;;;;;21.20;44.69;100066.59;5055818;28;2851;-74
2023/01/30 09:39:55;;;;;;;;;;;;;;;21.22;44.58;100067.41;5056728;28;2503;-74
2023/01/30 09:42:22;;;;;;;;;;;;;;;21.23;44.71;100048.69;5055941;28;3014;-77
2023/01/30 09:44:48;;;;;;;;;;;;;;;21.26;44.60;100052.41;5054363;28;3209;-70
2023/01/30 09:47:22;;;;;;;;;;;;;;;21.29;44.70;100065.44;5050446;28;2896;-75
2023/01/30 09:49:55;;;;;;;;;;;;;;;21.36;44.63;100063.47;5053720;28;1653;-79
2023/01/30 09:52:24;;;;;;;;;;;;;;;21.39;44.70;100059.97;5056802;28;1673;-79
2023/01/30 09:54:51;;;;;;;;;;;;;;;21.45;44.39;100059.44;5053290;28;3062;-79
2023/01/30 09:57:23;;;;;;;;;;;;;;;21.48;44.30;100063.84;5058723;28;4554;-89
2023/01/30 10:00:09;;;;;;;;;;;;;;;21.53;44.33;100065.44;5052409;28;3934;-70
2023/01/30 10:02:49;;;;;;;;;;;;;;;21.53;44.40;100066.19;5051673;28;3221;-70
2023/01/30 10:05:16;;;;;;;;;;;;;;;21.57;44.27;100059.78;5055235;28;3141;-79
2023/01/30 10:07:48;;;;;;;;;;;;;;;21.67;44.23;100054.34;5055532;28;3515;-81
2023/01/30 10:10:14;;;;;;;;;;;;;;;21.63;44.45;100045.56;5057382;28;3542;-81
2023/01/30 10:12:47;;;;;;;;;;;;;;;21.62;44.39;100049.84;5060265;28;2050;-80
2023/01/30 10:15:21;;;;;;;;;;;;;;;21.61;44.69;100057.03;5062477;28;2864;-78
2023/01/30 10:17:51;;;;;;;;;;;;;;;21.50;44.32;100040.88;5057495;28;1644;-65
2023/01/30 10:20:30;;;;;;;;;;;;;;;21.53;44.31;100048.16;5059011;28;1951;-67
2023/01/30 10:23:01;;;;;;;;;;;;;;;21.53;44.26;100054.66;5053582;28;3194;-66
2023/01/30 10:25:37;;;;;;;;;;;;;;;21.54;44.42;100056.13;5055433;28;3598;-64
2023/01/30 10:28:30;;;;;;;;;;;;;;;21.51;44.29;100043.09;5056536;28;3135;-64
2023/01/30 10:31:03;;;;;;;;;;;;;;;21.48;44.24;100049.44;5053589;28;3186;-65
2023/01/30 10:33:34;;;;;;;;;;;;;;;21.44;44.36;100046.44;5055630;28;1677;-64
2023/01/30 10:36:03;;;;;;;;;;;;;;;21.45;44.18;100047.94;5053289;28;2605;-66
2023/01/30 10:38:38;;;;;;;;;;;;;;;21.46;44.26;100046.50;5060179;28;2693;-65
2023/01/30 10:41:13;;;;;;;;;;;;;;;21.48;44.57;100058.81;5052600;28;3111;-65
2023/01/30 10:43:41;;;;;;;;;;;;;;;21.43;44.46;100039.22;5053219;28;3176;-67
2023/01/30 10:46:18;;;;;;;;;;;;;;;21.31;44.29;100046.06;5058443;28;3345;-68
2023/01/30 10:48:48;;;;;;;;;;;;;;;21.67;43.86;100036.28;5054581;28;2167;-66
2023/01/30 10:51:21;;;;;;;;;;;;;;;21.75;43.77;100022.84;5051436;28;3380;-71
2023/01/30 10:53:51;;;;;;;;;;;;;;;21.80;43.71;100017.94;5046175;28;3186;-73
2023/01/30 10:56:27;;;;;;;;;;;;;;;21.74;43.58;100018.50;5053050;28;3036;-78
2023/01/30 10:58:57;;;;;;;;;;;;;;;21.67;44.22;100016.88;5048383;28;3209;-75
2023/01/30 11:01:27;;;;;;;;;;;;;;;21.78;44.23;100017.16;5054101;28;3087;-75
2023/01/30 11:03:55;;;;;;;;;;;;;;;21.79;43.94;100019.34;5045753;28;4663;-81
2023/01/30 11:06:24;;;;;;;;;;;;;;;21.74;44.11;100030.03;5048417;28;2867;-72
2023/01/30 11:08:51;;;;;;;;;;;;;;;21.74;44.12;100014.91;5053634;28;3121;-82
2023/01/30 11:11:31;;;;;;;;;;;;;;;21.85;44.21;100008.00;5050382;28;3369;-76
2023/01/30 11:14:05;;;;;;;;;;;;;;;21.89;43.85;100010.25;5051032;28;3103;-77
2023/01/30 11:16:32;;;;;;;;;;;;;;;21.90;43.84;100008.84;5050817;28;3189;-83
2023/01/30 11:19:00;;;;;;;;;;;;;;;21.89;43.98;99995.81;5050701;28;2993;-79
2023/01/30 11:21:50;;;;;;;;;;;;;;;21.91;44.03;99987.97;5047179;28;3020;-82
2023/01/30 11:24:21;;;;;;;;;;;;;;;21.80;44.31;99991.25;5049961;28;3099;-70
2023/01/30 11:26:48;;;;;;;;;;;;;;;21.77;44.36;99984.00;5045063;28;3172;-72
2023/01/30 11:29:15;;;;;;;;;;;;;;;21.77;44.54;99981.09;5037753;28;3037;-74
2023/01/30 11:31:41;;;;;;;;;;;;;;;21.75;44.66;99965.22;5055812;28;2909;-73
2023/01/30 11:34:14;;;;;;;;;;;;;;;21.78;44.58;99973.91;5045043;28;3032;-73
2023/01/30 11:36:41;;;;;;;;;;;;;;;21.74;44.67;99965.91;5044735;28;3127;-71
2023/01/30 11:39:14;;;;;;;;;;;;;;;21.88;44.70;99948.25;5043235;28;3303;-72
2023/01/30 11:41:41;;;;;;;;;;;;;;;21.82;44.45;99945.94;5052216;28;3045;-73
2023/01/30 11:44:08;;;;;;;;;;;;;;;21.83;44.41;99946.66;5041135;28;4621;-75
2023/01/30 11:46:35;;;;;;;;;;;;;;;21.89;44.54;99943.94;5036218;28;6787;-72
2023/01/30 11:49:23;;;;;;;;;;;;;;;22.01;44.24;99938.47;5052624;28;3056;-76
2023/01/30 11:52:09;;;;;;;;;;;;;;;22.06;44.04;99933.56;5049534;28;3008;-78
2023/01/30 11:54:36;;;;;;;;;;;;;;;21.96;44.51;99931.88;5051718;28;2879;-74
2023/01/30 11:57:03;;;;;;;;;;;;;;;21.88;44.52;99930.97;5055916;28;3572;-73
2023/01/30 11:59:31;;;;;;;;;;;;;;;21.90;44.38;99933.91;5056588;28;3057;-73
2023/01/30 12:02:09;;;;;;;;;;;;;;;22.05;44.19;99929.94;5053179;28;2941;-76
2023/01/30 12:04:35;;;;;;;;;;;;;;;21.94;44.18;99936.88;5054047;28;3042;-74
2023/01/30 12:07:06;;;;;;;;;;;;;;;21.92;44.42;99931.03;5054173;28;3082;-78
2023/01/30 12:09:33;;;;;;;;;;;;;;;21.99;44.20;99929.06;5058346;28;3204;-74
2023/01/30 12:12:00;;;;;;;;;;;;;;;22.03;43.81;99927.00;5052726;28;3100;-69
2023/01/30 12:14:26;;;;;;;;;;;;;;;21.96;44.49;99913.88;5052779;28;3328;-71
2023/01/30 12:16:55;;;;;;;;;;;;;;;21.95;44.40;99903.75;5052485;28;3188;-71
2023/01/30 12:19:26;;;;;;;;;;;;;;;22.05;44.21;99912.66;5051891;28;3230;-81
2023/01/30 12:21:56;;;;;;;;;;;;;;;22.14;44.24;99916.47;5049292;28;4576;-75
2023/01/30 12:24:58;;;;;;;;;;;;;;;22.06;43.86;99899.72;5050845;28;3167;-76
2023/01/30 12:27:27;;;;;;;;;;;;;;;21.23;42.24;99919.13;5013101;28;3196;-71
2023/01/30 12:30:02;;;;;;;;;;;;;;;21.10;40.79;99905.84;5045697;28;2986;-70
2023/01/30 12:32:29;;;;;;;;;;;;;;;21.21;41.28;99910.47;5046781;28;3259;-71
2023/01/30 12:34:56;;;;;;;;;;;;;;;21.22;42.89;99906.16;5050673;28;2954;-70
2023/01/30 12:37:22;;;;;;;;;;;;;;;21.23;42.70;99898.97;5048521;28;3248;-71
2023/01/30 12:39:48;;;;;;;;;;;;;;;21.21;43.38;99896.06;5048790;28;3000;-79
2023/01/30 12:42:19;;;;;;;;;;;;;;;21.27;42.92;99890.47;5047173;28;3012;-71
2023/01/30 12:45:13;;;;;;;;;;;;;;;21.28;43.80;99873.91;5042422;28;4461;-72
2023/01/30 12:47:47;;;;;;;;;;;;;;;21.26;43.71;99877.50;5044816;28;2960;-72
2023/01/30 12:50:19;;;;;;;;;;;;;;;21.26;43.74;99876.75;5045894;28;3337;-72
2023/01/30 12:52:49;;;;;;;;;;;;;;;21.22;44.02;99856.50;5048124;28;4364;-72
2023/01/30 12:55:25;;;;;;;;;;;;;;;21.21;44.28;99870.16;5045001;28;3317;-72
2023/01/30 12:57:59;;;;;;;;;;;;;;;21.20;44.19;99868.69;5049655;28;3143;-69
2023/01/30 13:00:31;;;;;;;;;;;;;;;21.21;44.58;99878.81;5046572;28;3017;-71
2023/01/30 13:03:02;;;;;;;;;;;;;;;21.23;44.02;99873.06;5051932;28;3312;-71
2023/01/30 13:05:39;;;;;;;;;;;;;;;21.22;43.94;99888.16;5049257;28;2977;-68